createdAt,value
2022-11-06T00:01:26.605Z,5.00
2022-11-06T00:03:54.183Z,5.00
2022-11-06T00:06:40.205Z,5.00
2022-11-06T00:09:10.775Z,5.00
2022-11-06T00:11:39.429Z,4.90
2022-11-06T00:14:06.921Z,4.90
2022-11-06T00:16:34.384Z,4.90
2022-11-06T00:19:01.960Z,4.90
2022-11-06T00:21:30.933Z,4.90
2022-11-06T00:24:00.640Z,4.90
2022-11-06T00:26:29.509Z,4.90
2022-11-06T00:28:57.503Z,4.90
2022-11-06T00:31:28.872Z,4.90
2022-11-06T00:33:58.749Z,4.90
2022-11-06T00:36:27.504Z,4.90
2022-11-06T00:38:56.648Z,4.90
2022-11-06T00:41:24.517Z,4.90
2022-11-06T00:43:53.725Z,4.90
2022-11-06T00:46:21.168Z,4.80
2022-11-06T00:48:48.655Z,4.90
2022-11-06T00:51:19.233Z,4.80
2022-11-06T00:53:46.517Z,4.90
2022-11-06T00:56:18.794Z,4.90
2022-11-06T00:58:47.184Z,4.80
2022-11-06T01:01:14.319Z,4.80
2022-11-06T01:03:44.703Z,4.90
2022-11-06T01:06:17.342Z,4.90
2022-11-06T01:08:44.897Z,4.90
2022-11-06T01:11:14.612Z,4.90
2022-11-06T01:13:42.988Z,4.90
2022-11-06T01:16:12.098Z,5.00
2022-11-06T01:18:40.068Z,5.00
2022-11-06T01:21:28.291Z,5.00
2022-11-06T01:24:00.609Z,5.00
2022-11-06T01:26:37.882Z,4.90
2022-11-06T01:29:09.162Z,5.30
2022-11-06T01:31:36.562Z,5.30
2022-11-06T01:34:04.880Z,5.30
2022-11-06T01:36:32.526Z,5.40
2022-11-06T01:39:01.660Z,5.30
2022-11-06T01:41:35.745Z,5.30
2022-11-06T01:44:23.798Z,5.40
2022-11-06T01:46:50.800Z,5.40
2022-11-06T01:49:18.217Z,5.40
2022-11-06T01:51:47.886Z,5.50
2022-11-06T01:54:15.867Z,5.50
2022-11-06T01:56:46.890Z,5.50
2022-11-06T01:59:18.145Z,5.50
2022-11-06T02:01:46.253Z,5.50
2022-11-06T02:04:21.082Z,5.70
2022-11-06T02:06:49.002Z,5.70
2022-11-06T02:09:17.113Z,5.60
2022-11-06T02:11:55.046Z,5.70
2022-11-06T02:14:51.139Z,5.80
2022-11-06T02:17:54.171Z,5.90
2022-11-06T02:20:47.453Z,5.90
2022-11-06T02:23:48.650Z,6.00
2022-11-06T02:26:48.470Z,6.20
2022-11-06T02:29:26.114Z,6.20
2022-11-06T02:32:02.134Z,6.20
2022-11-06T02:34:33.728Z,6.20
2022-11-06T02:37:09.900Z,6.40
2022-11-06T02:39:56.793Z,6.30
2022-11-06T02:42:27.836Z,6.30
2022-11-06T02:44:57.514Z,6.30
2022-11-06T02:47:29.720Z,6.20
2022-11-06T02:50:11.412Z,6.20
2022-11-06T02:52:44.689Z,6.20
2022-11-06T02:55:27.836Z,6.20
2022-11-06T02:58:04.083Z,6.10
2022-11-06T03:00:34.194Z,6.00
2022-11-06T03:03:09.720Z,5.90
2022-11-06T03:05:49.495Z,5.90
2022-11-06T03:08:42.533Z,5.90
2022-11-06T03:11:20.348Z,5.90
2022-11-06T03:13:59.388Z,6.00
2022-11-06T03:16:39.644Z,5.90
2022-11-06T03:19:36.790Z,5.90
2022-11-06T03:22:27.532Z,6.00
2022-11-06T03:25:18.829Z,5.90
2022-11-06T03:28:11.042Z,5.90
2022-11-06T03:30:51.583Z,5.90
2022-11-06T03:33:33.602Z,5.90
2022-11-06T03:36:09.523Z,6.30
2022-11-06T03:38:53.521Z,6.30
2022-11-06T03:41:40.189Z,6.20
2022-11-06T03:44:21.492Z,6.20
2022-11-06T03:47:05.748Z,6.10
2022-11-06T03:49:42.213Z,6.10
2022-11-06T03:52:22.774Z,6.00
2022-11-06T03:55:26.074Z,6.00
2022-11-06T03:57:59.492Z,6.00
2022-11-06T04:00:31.124Z,5.90
2022-11-06T04:03:08.133Z,5.90
2022-11-06T04:06:19.186Z,5.90
2022-11-06T04:09:21.766Z,5.90
2022-11-06T04:12:25.266Z,5.90
2022-11-06T04:15:13.621Z,5.90
2022-11-06T04:21:45.599Z,5.80
2022-11-06T04:25:06.945Z,5.80
2022-11-06T04:27:56.052Z,5.80
2022-11-06T04:30:37.266Z,5.80
2022-11-06T04:33:38.587Z,5.70
2022-11-06T04:36:41.403Z,5.80
2022-11-06T04:39:24.120Z,5.70
2022-11-06T04:42:41.546Z,5.70
2022-11-06T04:45:17.382Z,5.70
2022-11-06T04:47:48.856Z,5.60
2022-11-06T04:50:25.913Z,5.60
2022-11-06T04:53:10.326Z,5.60
2022-11-06T04:56:04.060Z,5.50
2022-11-06T04:58:37.369Z,5.50
2022-11-06T05:01:09.685Z,5.50
2022-11-06T05:03:43.227Z,5.50
2022-11-06T05:06:17.364Z,5.50
2022-11-06T05:08:48.444Z,5.50
2022-11-06T05:11:16.471Z,5.50
2022-11-06T05:13:44.838Z,5.40
2022-11-06T05:16:13.434Z,5.40
2022-11-06T05:18:45.476Z,5.40
2022-11-06T05:21:35.019Z,5.40
2022-11-06T05:24:15.940Z,5.40
2022-11-06T05:26:44.199Z,5.40
2022-11-06T05:29:13.996Z,5.40
2022-11-06T05:31:44.915Z,5.40
2022-11-06T05:34:13.120Z,5.40
2022-11-06T05:36:47.209Z,5.50
2022-11-06T05:39:15.718Z,5.50
2022-11-06T05:41:46.003Z,5.50
2022-11-06T05:44:14.234Z,5.50
2022-11-06T05:46:48.813Z,5.50
2022-11-06T05:49:18.230Z,5.50
2022-11-06T05:51:48.675Z,5.50
2022-11-06T05:54:24.625Z,5.50
2022-11-06T05:56:52.596Z,5.50
2022-11-06T05:59:20.738Z,5.60
2022-11-06T06:01:54.422Z,5.80
2022-11-06T06:04:23.771Z,5.80
2022-11-06T06:06:52.771Z,5.80
2022-11-06T06:09:22.902Z,5.90
2022-11-06T06:11:54.609Z,5.90
2022-11-06T06:14:25.183Z,5.90
2022-11-06T06:17:00.511Z,6.10
2022-11-06T06:19:33.608Z,6.10
2022-11-06T06:22:10.895Z,6.10
2022-11-06T06:24:42.034Z,6.40
2022-11-06T06:27:13.142Z,6.50
2022-11-06T06:29:41.355Z,6.50
2022-11-06T06:32:09.390Z,6.30
2022-11-06T06:34:44.050Z,6.30
2022-11-06T06:37:20.142Z,6.50
2022-11-06T06:39:53.532Z,6.50
2022-11-06T06:42:21.584Z,6.60
2022-11-06T06:44:51.969Z,6.90
2022-11-06T06:47:19.988Z,7.20
2022-11-06T06:49:50.820Z,7.50
2022-11-06T06:52:25.129Z,8.00
2022-11-06T06:54:55.773Z,8.50
2022-11-06T06:57:23.845Z,8.20
2022-11-06T06:59:54.549Z,8.40
2022-11-06T07:02:22.689Z,8.60
2022-11-06T07:04:55.304Z,8.80
2022-11-06T07:07:25.015Z,8.80
2022-11-06T07:09:52.982Z,9.00
2022-11-06T07:12:23.945Z,9.20
2022-11-06T07:14:58.060Z,9.40
2022-11-06T07:17:26.287Z,9.60
2022-11-06T07:19:54.200Z,10.00
2022-11-06T07:22:36.600Z,10.30
2022-11-06T07:25:11.039Z,10.70
2022-11-06T07:27:42.261Z,11.00
2022-11-06T07:30:13.674Z,11.50
2022-11-06T07:32:51.643Z,11.90
2022-11-06T07:35:22.231Z,12.50
2022-11-06T07:38:04.564Z,12.60
2022-11-06T07:40:38.903Z,13.00
2022-11-06T07:43:15.434Z,13.40
2022-11-06T07:45:46.687Z,14.30
2022-11-06T07:48:17.573Z,15.00
2022-11-06T07:50:47.859Z,15.50
2022-11-06T07:53:18.327Z,15.80
2022-11-06T07:55:53.805Z,15.80
2022-11-06T07:58:26.076Z,16.00
2022-11-06T08:00:58.941Z,16.50
2022-11-06T08:03:30.869Z,16.70
2022-11-06T08:06:00.253Z,17.00
2022-11-06T08:08:31.984Z,17.10
2022-11-06T08:11:08.261Z,17.40
2022-11-06T08:13:40.752Z,17.80
2022-11-06T08:16:16.900Z,18.20
2022-11-06T08:18:48.221Z,18.20
2022-11-06T08:21:27.568Z,18.20
2022-11-06T08:24:16.449Z,18.80
2022-11-06T08:26:50.528Z,19.30
2022-11-06T08:29:24.230Z,20.30
2022-11-06T08:31:52.381Z,21.10
2022-11-06T08:34:20.967Z,21.20
2022-11-06T08:36:57.053Z,21.10
2022-11-06T08:39:27.381Z,22.00
2022-11-06T08:41:55.200Z,22.30
2022-11-06T08:44:25.807Z,22.70
2022-11-06T08:47:00.522Z,22.40
2022-11-06T08:49:31.424Z,23.60
2022-11-06T08:52:01.738Z,23.90
2022-11-06T08:54:29.713Z,23.60
2022-11-06T08:57:00.602Z,24.50
2022-11-06T08:59:28.470Z,25.30
2022-11-06T09:02:01.167Z,25.50
2022-11-06T09:04:32.990Z,25.70
2022-11-06T09:07:10.257Z,26.00
2022-11-06T09:09:43.302Z,26.90
2022-11-06T09:12:13.316Z,26.80
2022-11-06T09:14:51.390Z,26.80
2022-11-06T09:17:30.016Z,27.50
2022-11-06T09:20:00.805Z,27.40
2022-11-06T09:22:35.948Z,28.00
2022-11-06T09:25:05.943Z,28.30
2022-11-06T09:27:40.109Z,29.10
2022-11-06T09:30:24.342Z,29.50
2022-11-06T09:33:00.378Z,28.60
2022-11-06T09:35:32.997Z,27.90
2022-11-06T09:38:05.658Z,27.70
2022-11-06T09:40:54.006Z,28.20
2022-11-06T09:44:04.243Z,28.50
2022-11-06T09:46:39.570Z,28.30
2022-11-06T09:49:33.786Z,28.10
2022-11-06T09:52:27.761Z,28.00
2022-11-06T09:55:10.145Z,26.70
2022-11-06T09:57:55.471Z,26.70
2022-11-06T10:00:27.409Z,26.40
2022-11-06T10:03:06.948Z,26.20
2022-11-06T10:05:37.711Z,26.00
2022-11-06T10:08:22.693Z,26.10
2022-11-06T10:11:22.877Z,25.30
2022-11-06T10:14:03.157Z,24.70
2022-11-06T10:16:31.614Z,24.20
2022-11-06T10:19:14.533Z,23.80
2022-11-06T10:21:54.295Z,23.50
2022-11-06T10:24:33.948Z,23.20
2022-11-06T10:27:07.932Z,23.00
2022-11-06T10:30:03.291Z,22.40
2022-11-06T10:32:54.941Z,21.90
2022-11-06T10:35:43.313Z,21.70
2022-11-06T10:38:49.341Z,21.80
2022-11-06T10:41:41.099Z,21.10
2022-11-06T10:44:23.373Z,20.60
2022-11-06T10:47:01.744Z,20.60
2022-11-06T10:50:05.881Z,20.70
2022-11-06T10:52:53.586Z,20.30
2022-11-06T10:55:55.196Z,20.00
2022-11-06T10:58:32.205Z,19.50
2022-11-06T11:01:06.816Z,19.00
2022-11-06T11:03:43.735Z,19.30
2022-11-06T11:06:17.510Z,19.70
2022-11-06T11:08:47.195Z,19.70
2022-11-06T11:11:19.287Z,19.50
2022-11-06T11:14:12.757Z,19.30
2022-11-06T11:16:46.691Z,19.40
2022-11-06T11:19:32.474Z,19.20
2022-11-06T11:22:05.410Z,19.10
2022-11-06T11:24:33.967Z,19.00
2022-11-06T11:27:06.500Z,18.70
2022-11-06T11:29:50.960Z,18.50
2022-11-06T11:32:23.150Z,18.50
2022-11-06T11:34:56.896Z,18.50
2022-11-06T11:37:32.208Z,18.20
2022-11-06T11:40:22.861Z,17.70
2022-11-06T11:42:54.823Z,17.30
2022-11-06T11:45:28.764Z,16.90
2022-11-06T11:48:17.185Z,16.60
2022-11-06T11:50:51.071Z,16.70
2022-11-06T11:53:23.564Z,16.60
2022-11-06T11:55:55.142Z,16.60
2022-11-06T11:58:28.005Z,16.80
2022-11-06T12:01:09.595Z,16.70
2022-11-06T12:03:47.924Z,16.60
2022-11-06T12:06:21.778Z,16.60
2022-11-06T12:08:54.000Z,16.40
2022-11-06T12:11:29.209Z,16.40
2022-11-06T12:14:28.930Z,16.00
2022-11-06T12:17:06.776Z,15.80
2022-11-06T12:19:40.637Z,15.70
2022-11-06T12:22:20.916Z,15.50
2022-11-06T12:25:07.504Z,15.60
2022-11-06T12:27:53.146Z,15.60
2022-11-06T12:30:25.371Z,15.50
2022-11-06T12:33:13.821Z,15.50
2022-11-06T12:35:55.614Z,15.50
2022-11-06T12:38:42.222Z,15.50
2022-11-06T12:41:36.396Z,15.30
2022-11-06T12:44:12.217Z,14.90
2022-11-06T12:46:57.336Z,14.90
2022-11-06T12:50:03.155Z,14.90
2022-11-06T12:52:56.136Z,15.00
2022-11-06T12:55:44.464Z,14.80
2022-11-06T12:58:21.473Z,14.90
2022-11-06T13:01:11.364Z,14.90
2022-11-06T13:03:50.989Z,14.80
2022-11-06T13:07:03.179Z,14.70
2022-11-06T13:09:36.267Z,14.60
2022-11-06T13:12:32.800Z,14.50
2022-11-06T13:15:31.818Z,14.50
2022-11-06T13:18:09.367Z,14.20
2022-11-06T13:21:20.239Z,14.20
2022-11-06T13:24:10.458Z,14.20
2022-11-06T13:26:47.944Z,14.20
2022-11-06T13:29:37.239Z,14.00
2022-11-06T13:32:13.367Z,14.00
2022-11-06T13:34:43.542Z,13.90
2022-11-06T13:37:23.627Z,13.80
2022-11-06T13:40:10.590Z,13.70
2022-11-06T13:42:44.165Z,13.70
2022-11-06T13:45:18.745Z,13.70
2022-11-06T13:48:01.251Z,13.70
2022-11-06T13:50:45.453Z,13.80
2022-11-06T13:53:30.211Z,13.80
2022-11-06T13:56:37.320Z,13.80
2022-11-06T13:59:29.794Z,13.70
2022-11-06T14:02:31.159Z,13.60
2022-11-06T14:05:22.332Z,13.60
2022-11-06T14:07:54.783Z,13.60
2022-11-06T14:10:36.860Z,13.60
2022-11-06T14:13:07.323Z,13.60
2022-11-06T14:15:38.655Z,13.60
2022-11-06T14:18:07.754Z,13.50
2022-11-06T14:20:40.430Z,13.50
2022-11-06T14:23:31.338Z,13.50
2022-11-06T14:26:09.342Z,13.40
2022-11-06T14:28:43.561Z,13.40
2022-11-06T14:31:15.072Z,13.30
2022-11-06T14:33:45.450Z,13.20
2022-11-06T14:36:32.655Z,12.90
2022-11-06T14:39:08.280Z,13.00
2022-11-06T14:41:40.910Z,13.00
2022-11-06T14:44:48.171Z,13.00
2022-11-06T14:47:31.099Z,12.90
2022-11-06T14:50:04.793Z,12.80
2022-11-06T14:52:56.215Z,12.60
2022-11-06T14:55:38.413Z,12.60
2022-11-06T14:58:40.463Z,12.60
2022-11-06T15:01:29.199Z,12.50
2022-11-06T15:04:22.809Z,12.50
2022-11-06T15:07:10.649Z,12.50
2022-11-06T15:10:03.565Z,12.50
2022-11-06T15:13:24.543Z,12.50
2022-11-06T15:16:11.526Z,12.60
2022-11-06T15:18:51.381Z,12.60
2022-11-06T15:21:40.042Z,12.50
2022-11-06T15:24:28.622Z,12.40
2022-11-06T15:27:23.313Z,12.30
2022-11-06T15:30:17.667Z,12.40
2022-11-06T15:32:58.330Z,12.30
2022-11-06T15:35:43.092Z,12.30
2022-11-06T15:38:36.046Z,12.20
2022-11-06T15:41:07.290Z,12.10
2022-11-06T15:43:40.883Z,11.90
2022-11-06T15:46:38.470Z,11.80
2022-11-06T15:49:23.934Z,11.80
2022-11-06T15:52:15.862Z,11.70
2022-11-06T15:54:59.877Z,11.60
2022-11-06T15:57:32.592Z,11.20
2022-11-06T16:00:21.140Z,11.10
2022-11-06T16:03:10.869Z,11.10
2022-11-06T16:05:44.808Z,11.00
2022-11-06T16:08:30.229Z,11.00
2022-11-06T16:11:13.257Z,10.90
2022-11-06T16:13:45.636Z,10.60
2022-11-06T16:16:46.250Z,10.60
2022-11-06T16:19:37.974Z,10.60
2022-11-06T16:22:16.492Z,10.60
2022-11-06T16:25:05.962Z,10.50
2022-11-06T16:27:43.457Z,10.40
2022-11-06T16:30:25.315Z,10.50
2022-11-06T16:32:57.914Z,10.40
2022-11-06T16:35:36.239Z,10.40
2022-11-06T16:38:45.862Z,10.40
2022-11-06T16:41:14.073Z,10.30
2022-11-06T16:43:48.173Z,10.10
2022-11-06T16:46:20.136Z,10.20
2022-11-06T16:49:52.896Z,10.10
2022-11-06T16:52:40.452Z,10.20
2022-11-06T16:55:18.949Z,10.20
2022-11-06T16:57:59.621Z,10.10
2022-11-06T17:00:31.839Z,10.00
2022-11-06T17:03:08.054Z,10.00
2022-11-06T17:05:39.647Z,10.00
2022-11-06T17:08:21.584Z,10.00
2022-11-06T17:10:56.332Z,10.00
2022-11-06T17:13:41.174Z,10.10
2022-11-06T17:16:16.807Z,10.10
2022-11-06T17:18:46.158Z,10.00
2022-11-06T17:21:18.006Z,9.90
2022-11-06T17:23:51.295Z,9.90
2022-11-06T17:26:23.876Z,9.80
2022-11-06T17:28:54.113Z,9.80
2022-11-06T17:31:27.785Z,9.80
2022-11-06T17:33:59.876Z,9.80
2022-11-06T17:36:32.752Z,9.70
2022-11-06T17:39:05.119Z,9.60
2022-11-06T17:41:36.890Z,9.60
2022-11-06T17:44:09.869Z,9.60
2022-11-06T17:46:43.263Z,9.60
2022-11-06T17:49:18.289Z,9.60
2022-11-06T17:51:53.471Z,9.30
2022-11-06T17:54:28.271Z,9.30
2022-11-06T17:57:01.081Z,9.10
2022-11-06T17:59:36.880Z,9.10
2022-11-06T18:02:08.516Z,9.20
2022-11-06T18:04:39.552Z,9.10
2022-11-06T18:07:24.268Z,9.10
2022-11-06T18:10:02.724Z,9.00
2022-11-06T18:12:32.893Z,8.80
2022-11-06T18:15:22.894Z,8.80
2022-11-06T18:17:58.850Z,8.80
2022-11-06T18:20:32.860Z,8.70
2022-11-06T18:23:06.561Z,8.60
2022-11-06T18:25:37.603Z,8.60
2022-11-06T18:28:12.044Z,8.60
2022-11-06T18:30:45.915Z,8.60
2022-11-06T18:33:25.868Z,8.50
2022-11-06T18:36:00.297Z,8.50
2022-11-06T18:38:36.551Z,8.40
2022-11-06T18:41:24.396Z,8.20
2022-11-06T18:44:03.797Z,8.20
2022-11-06T18:46:37.127Z,8.20
2022-11-06T18:49:19.836Z,8.10
2022-11-06T18:51:50.259Z,8.00
2022-11-06T18:54:22.835Z,8.00
2022-11-06T18:56:54.203Z,7.90
2022-11-06T18:59:27.181Z,7.90
2022-11-06T19:02:01.035Z,7.80
2022-11-06T19:04:31.865Z,7.70
2022-11-06T19:07:02.850Z,7.70
2022-11-06T19:09:35.031Z,7.70
2022-11-06T19:12:10.174Z,7.70
2022-11-06T19:14:47.448Z,7.60
2022-11-06T19:17:34.358Z,7.50
2022-11-06T19:20:15.015Z,7.40
2022-11-06T19:23:16.313Z,7.30
2022-11-06T19:26:10.440Z,7.30
2022-11-06T19:29:07.915Z,7.20
2022-11-06T19:31:49.480Z,7.00
2022-11-06T19:34:28.688Z,7.20
2022-11-06T19:37:01.518Z,7.00
2022-11-06T19:39:39.420Z,7.10
2022-11-06T19:42:10.461Z,7.10
2022-11-06T19:44:46.328Z,7.00
2022-11-06T19:47:24.419Z,7.00
2022-11-06T19:49:58.739Z,6.80
2022-11-06T19:52:41.171Z,6.80
2022-11-06T19:55:24.767Z,6.80
2022-11-06T19:58:07.601Z,6.80
2022-11-06T20:00:46.732Z,6.70
2022-11-06T20:03:31.556Z,6.60
2022-11-06T20:06:16.716Z,6.60
2022-11-06T20:08:55.623Z,6.60
2022-11-06T20:11:40.696Z,6.60
2022-11-06T20:14:22.559Z,6.60
2022-11-06T20:16:54.034Z,6.60
2022-11-06T20:19:33.947Z,6.70
2022-11-06T20:22:07.975Z,6.70
2022-11-06T20:24:55.083Z,6.70
2022-11-06T20:27:34.320Z,6.70
2022-11-06T20:30:30.056Z,6.60
2022-11-06T20:33:07.649Z,6.70
2022-11-06T20:35:40.522Z,6.70
2022-11-06T20:38:15.754Z,6.70
2022-11-06T20:41:00.722Z,6.70
2022-11-06T20:43:41.348Z,6.70
2022-11-06T20:46:25.963Z,6.70
2022-11-06T20:49:01.410Z,6.60
2022-11-06T20:51:43.045Z,6.50
2022-11-06T20:54:26.820Z,6.60
2022-11-06T20:57:00.010Z,6.50
2022-11-06T20:59:30.275Z,6.50
2022-11-06T21:02:04.119Z,6.40
2022-11-06T21:04:33.542Z,6.40
2022-11-06T21:07:02.329Z,6.40
2022-11-06T21:09:32.881Z,6.40
2022-11-06T21:12:02.815Z,6.40
2022-11-06T21:14:32.915Z,6.30
2022-11-06T21:17:08.746Z,6.30
2022-11-06T21:19:37.839Z,6.20
2022-11-06T21:22:09.985Z,6.20
2022-11-06T21:24:39.431Z,6.10
2022-11-06T21:27:08.544Z,6.10
2022-11-06T21:29:42.338Z,6.00
2022-11-06T21:32:10.639Z,5.90
2022-11-06T21:34:42.368Z,5.80
2022-11-06T21:37:20.356Z,5.90
2022-11-06T21:39:51.814Z,5.80
2022-11-06T21:42:19.893Z,5.80
2022-11-06T21:44:49.500Z,5.80
2022-11-06T21:47:23.232Z,5.70
2022-11-06T21:50:00.623Z,5.60
2022-11-06T21:52:53.527Z,5.60
2022-11-06T21:55:42.898Z,5.60
2022-11-06T21:58:11.961Z,5.60
2022-11-06T22:00:41.115Z,5.50
2022-11-06T22:03:09.161Z,5.50
2022-11-06T22:05:37.945Z,5.40
2022-11-06T22:08:07.173Z,5.40
2022-11-06T22:10:35.959Z,5.30
2022-11-06T22:13:06.768Z,5.30
2022-11-06T22:15:34.429Z,5.40
2022-11-06T22:18:11.357Z,5.50
2022-11-06T22:20:48.516Z,5.30
2022-11-06T22:23:31.751Z,5.30
2022-11-06T22:26:03.607Z,5.30
2022-11-06T22:28:35.136Z,5.20
2022-11-06T22:31:04.112Z,5.20
2022-11-06T22:33:37.466Z,5.20
2022-11-06T22:36:16.177Z,5.00
2022-11-06T22:38:48.207Z,5.00
2022-11-06T22:41:22.421Z,5.00
2022-11-06T22:43:58.475Z,5.00
2022-11-06T22:46:30.855Z,5.00
2022-11-06T22:48:59.987Z,5.00
2022-11-06T22:51:30.607Z,5.00
2022-11-06T22:54:04.190Z,4.90
2022-11-06T22:56:35.646Z,4.90
2022-11-06T22:59:10.080Z,4.90
2022-11-06T23:01:42.928Z,4.80
2022-11-06T23:04:15.917Z,4.80
2022-11-06T23:06:45.954Z,4.90
2022-11-06T23:09:17.544Z,4.90
2022-11-06T23:11:48.120Z,4.90
2022-11-06T23:14:16.655Z,4.90
2022-11-06T23:17:01.493Z,4.90
2022-11-06T23:19:31.586Z,4.90
2022-11-06T23:22:19.201Z,4.90
2022-11-06T23:24:52.648Z,4.90
2022-11-06T23:27:21.403Z,4.70
2022-11-06T23:29:52.544Z,4.60
2022-11-06T23:32:21.023Z,4.60
2022-11-06T23:34:52.647Z,4.60
2022-11-06T23:37:20.681Z,4.50
2022-11-06T23:39:53.975Z,4.60
2022-11-06T23:42:23.856Z,4.60
2022-11-06T23:45:11.488Z,4.60
2022-11-06T23:47:43.823Z,4.70
2022-11-06T23:50:13.983Z,4.70
2022-11-06T23:52:41.519Z,4.70
2022-11-06T23:55:12.005Z,4.70
2022-11-06T23:57:39.934Z,4.60
